METAR Data
IDs: Format: Raw Decoded Include TAF

Data at: 1345 UTC 22 Apr 2021

LIPA 221255Z 24007KT 9999 FEW035TCU SCT045 17/08 Q1018 RMK BKN VIS MIN 9999 WIND THR05 /////KT WIND THR23 /////KT A3009 BLU